Time,TemperatureF,DewpointF,PressureIn,WindDirection,WindDirectionDegrees,WindSpeedMPH,WindSpeedGustMPH,Humidity,HourlyPrecipIn,Conditions,Clouds,dailyrainin,SolarRadiationWatts/m^2,SoftwareType,DateUTC
2013-08-25 00:01:00,57.0,43.0,-100.00,SSW,193,1.0,3.0,60,0.00,,,0.00,0.000000,,2013-08-25 07:01:00,
2013-08-25 00:12:00,57.0,43.0,-100.00,SSW,193,1.0,3.0,60,0.00,,,0.00,0.000000,,2013-08-25 07:12:00,
2013-08-25 00:22:00,57.0,43.0,-100.00,SSW,193,1.0,3.0,60,0.00,,,0.00,0.000000,,2013-08-25 07:22:00,
2013-08-25 00:31:00,57.0,45.0,-100.00,South,173,3.0,5.0,64,0.00,,,0.00,0.000000,,2013-08-25 07:31:00,
2013-08-25 00:52:00,57.0,45.0,-100.00,South,173,3.0,5.0,64,0.00,,,0.00,0.000000,,2013-08-25 07:52:00,
2013-08-25 01:02:00,57.0,45.0,-100.00,South,173,3.0,5.0,64,0.00,,,0.00,0.000000,,2013-08-25 08:02:00,
2013-08-25 01:12:00,57.0,45.0,-100.00,South,173,3.0,5.0,64,0.00,,,0.00,0.000000,,2013-08-25 08:12:00,
2013-08-25 01:21:00,57.0,45.0,-100.00,South,173,3.0,5.0,64,0.00,,,0.00,0.000000,,2013-08-25 08:21:00,
2013-08-25 01:31:00,57.0,47.0,-100.00,SW,218,1.0,4.0,69,0.00,,,0.00,0.000000,,2013-08-25 08:31:00,
2013-08-25 01:52:00,57.0,47.0,-100.00,SW,218,1.0,4.0,69,0.00,,,0.00,0.000000,,2013-08-25 08:52:00,
2013-08-25 02:02:00,57.0,47.0,-100.00,SW,218,1.0,4.0,69,0.00,,,0.00,0.000000,,2013-08-25 09:02:00,
2013-08-25 02:11:00,57.0,47.0,-100.00,SW,218,1.0,4.0,69,0.00,,,0.00,0.000000,,2013-08-25 09:11:00,
2013-08-25 02:22:00,57.0,47.0,-100.00,SW,218,1.0,4.0,69,0.00,,,0.00,0.000000,,2013-08-25 09:22:00,
2013-08-25 02:31:00,57.0,48.0,-100.00,SSW,198,3.0,5.0,73,0.00,,,0.00,0.000000,,2013-08-25 09:31:00,
2013-08-25 02:55:00,57.0,48.0,-100.00,SSW,198,3.0,5.0,73,0.00,,,0.00,0.000000,,2013-08-25 09:55:00,
2013-08-25 03:03:00,57.0,48.0,-100.00,SSW,198,3.0,5.0,73,0.00,,,0.00,0.000000,,2013-08-25 10:03:00,
2013-08-25 03:12:00,57.0,48.0,-100.00,SSW,198,3.0,5.0,73,0.00,,,0.00,0.000000,,2013-08-25 10:12:00,
2013-08-25 03:22:00,57.0,48.0,-100.00,SSW,198,3.0,5.0,73,0.00,,,0.00,0.000000,,2013-08-25 10:22:00,
2013-08-25 03:31:00,57.0,50.0,-100.00,SSE,166,3.0,5.0,78,0.00,,,0.00,0.000000,,2013-08-25 10:31:00,
2013-08-25 03:53:00,57.0,50.0,-100.00,SSE,166,3.0,5.0,78,0.00,,,0.00,0.000000,,2013-08-25 10:53:00,
2013-08-25 04:02:00,57.0,50.0,-100.00,SSE,166,3.0,5.0,78,0.00,,,0.00,0.000000,,2013-08-25 11:02:00,
2013-08-25 04:11:00,57.0,50.0,-100.00,SSE,166,3.0,5.0,78,0.00,,,0.00,0.000000,,2013-08-25 11:11:00,
2013-08-25 04:22:00,57.0,50.0,-100.00,SSE,166,3.0,5.0,78,0.00,,,0.00,0.000000,,2013-08-25 11:22:00,
2013-08-25 04:31:00,55.0,50.0,-100.00,South,186,2.0,3.0,83,0.00,,,0.00,0.000000,,2013-08-25 11:31:00,
2013-08-25 04:52:00,55.0,50.0,-100.00,South,186,2.0,3.0,83,0.00,,,0.00,0.000000,,2013-08-25 11:52:00,
2013-08-25 05:01:00,55.0,50.0,-100.00,South,186,2.0,3.0,83,0.00,,,0.00,0.000000,,2013-08-25 12:01:00,
2013-08-25 05:12:00,55.0,50.0,-100.00,South,186,2.0,3.0,83,0.00,,,0.00,0.000000,,2013-08-25 12:12:00,
2013-08-25 05:22:00,55.0,50.0,-100.00,South,186,2.0,3.0,83,0.00,,,0.00,0.000000,,2013-08-25 12:22:00,
2013-08-25 05:31:00,55.0,50.0,-100.00,South,175,2.0,4.0,83,0.00,,,0.00,0.000000,,2013-08-25 12:31:00,
2013-08-25 05:52:00,55.0,50.0,-100.00,South,175,2.0,4.0,83,0.00,,,0.00,0.000000,,2013-08-25 12:52:00,
2013-08-25 06:02:00,55.0,50.0,-100.00,South,175,2.0,4.0,83,0.00,,,0.00,0.000000,,2013-08-25 13:02:00,
2013-08-25 06:11:00,55.0,50.0,-100.00,South,175,2.0,4.0,83,0.00,,,0.00,0.000000,,2013-08-25 13:11:00,
2013-08-25 06:21:00,55.0,50.0,-100.00,South,175,2.0,4.0,83,0.00,,,0.00,0.000000,,2013-08-25 13:21:00,
2013-08-25 06:31:00,54.0,49.0,-100.00,South,187,4.0,6.0,84,0.00,,,0.00,0.000000,,2013-08-25 13:31:00,
2013-08-25 06:52:00,54.0,49.0,-100.00,South,187,4.0,6.0,84,0.00,,,0.00,0.000000,,2013-08-25 13:52:00,
2013-08-25 07:02:00,54.0,49.0,-100.00,South,187,4.0,6.0,84,0.00,,,0.00,0.000000,,2013-08-25 14:02:00,
2013-08-25 07:11:00,54.0,49.0,-100.00,South,187,4.0,6.0,84,0.00,,,0.00,0.000000,,2013-08-25 14:11:00,
2013-08-25 07:24:00,54.0,49.0,-100.00,South,187,4.0,6.0,84,0.00,,,0.00,0.000000,,2013-08-25 14:24:00,
2013-08-25 07:31:00,55.0,52.0,-100.00,South,188,3.0,8.0,88,0.01,,,0.01,32.000000,,2013-08-25 14:31:00,
2013-08-25 08:11:00,55.0,52.0,-100.00,South,188,3.0,8.0,88,0.01,,,0.01,32.000000,,2013-08-25 15:11:00,
2013-08-25 08:23:00,55.0,52.0,-100.00,South,188,3.0,8.0,88,0.01,,,0.01,32.000000,,2013-08-25 15:23:00,
2013-08-25 08:31:00,59.0,55.0,-100.00,NNE,28,2.0,5.0,87,0.00,,,0.01,115.000000,,2013-08-25 15:31:00,
2013-08-25 08:55:00,59.0,55.0,-100.00,NNE,28,2.0,5.0,87,0.00,,,0.01,115.000000,,2013-08-25 15:55:00,
2013-08-25 09:04:00,59.0,55.0,-100.00,NNE,28,2.0,5.0,87,0.00,,,0.01,115.000000,,2013-08-25 16:04:00,
2013-08-25 09:13:00,59.0,55.0,-100.00,NNE,28,2.0,5.0,87,0.00,,,0.01,115.000000,,2013-08-25 16:13:00,
2013-08-25 09:24:00,59.0,55.0,-100.00,NNE,28,2.0,5.0,87,0.00,,,0.01,115.000000,,2013-08-25 16:24:00,
2013-08-25 09:31:00,59.0,53.0,-100.00,North,7,4.0,6.0,80,0.00,,,0.01,189.000000,,2013-08-25 16:31:00,
2013-08-25 09:54:00,59.0,53.0,-100.00,North,7,4.0,6.0,80,0.00,,,0.01,189.000000,,2013-08-25 16:54:00,
2013-08-25 10:03:00,59.0,53.0,-100.00,North,7,4.0,6.0,80,0.00,,,0.01,189.000000,,2013-08-25 17:03:00,
2013-08-25 10:11:00,59.0,53.0,-100.00,North,7,4.0,6.0,80,0.00,,,0.01,189.000000,,2013-08-25 17:11:00,
2013-08-25 10:22:00,59.0,53.0,-100.00,North,7,4.0,6.0,80,0.00,,,0.01,189.000000,,2013-08-25 17:22:00,
2013-08-25 10:31:00,62.0,55.0,-100.00,North,0,3.0,7.0,77,0.00,,,0.01,228.000000,,2013-08-25 17:31:00,
2013-08-25 10:53:00,62.0,55.0,-100.00,North,0,3.0,7.0,77,0.00,,,0.01,228.000000,,2013-08-25 17:53:00,
2013-08-25 11:02:00,62.0,55.0,-100.00,North,0,3.0,7.0,77,0.00,,,0.01,228.000000,,2013-08-25 18:02:00,
2013-08-25 11:12:00,62.0,55.0,-100.00,North,0,3.0,7.0,77,0.00,,,0.01,228.000000,,2013-08-25 18:12:00,
2013-08-25 11:21:00,62.0,55.0,-100.00,North,0,3.0,7.0,77,0.00,,,0.01,228.000000,,2013-08-25 18:21:00,
2013-08-25 11:31:00,65.0,54.0,-100.00,NNE,19,3.0,6.0,67,0.00,,,0.01,365.000000,,2013-08-25 18:31:00,
2013-08-25 11:52:00,65.0,54.0,-100.00,NNE,19,3.0,6.0,67,0.00,,,0.01,365.000000,,2013-08-25 18:52:00,
2013-08-25 12:02:00,65.0,54.0,-100.00,NNE,19,3.0,6.0,67,0.00,,,0.01,365.000000,,2013-08-25 19:02:00,
2013-08-25 12:11:00,65.0,54.0,-100.00,NNE,19,3.0,6.0,67,0.00,,,0.01,365.000000,,2013-08-25 19:11:00,
2013-08-25 12:22:00,65.0,54.0,-100.00,NNE,19,3.0,6.0,67,0.00,,,0.01,365.000000,,2013-08-25 19:22:00,
2013-08-25 12:31:00,60.0,47.0,-100.00,SW,225,5.0,9.0,61,0.07,,,0.08,218.000000,,2013-08-25 19:31:00,
2013-08-25 13:23:00,60.0,47.0,-100.00,SW,225,5.0,9.0,61,0.07,,,0.08,218.000000,,2013-08-25 20:23:00,
2013-08-25 13:31:00,59.0,57.0,-100.00,SSW,200,2.0,9.0,93,0.07,,,0.15,99.000000,,2013-08-25 20:31:00,
2013-08-25 13:53:00,59.0,57.0,-100.00,SSW,200,2.0,9.0,93,0.07,,,0.15,99.000000,,2013-08-25 20:53:00,
2013-08-25 14:01:00,59.0,57.0,-100.00,SSW,200,2.0,9.0,93,0.07,,,0.15,99.000000,,2013-08-25 21:01:00,
2013-08-25 14:12:00,59.0,57.0,-100.00,SSW,200,2.0,9.0,93,0.07,,,0.15,99.000000,,2013-08-25 21:12:00,
2013-08-25 14:22:00,59.0,57.0,-100.00,SSW,200,2.0,9.0,93,0.07,,,0.15,99.000000,,2013-08-25 21:22:00,
2013-08-25 14:31:00,63.0,58.0,-100.00,NNE,15,2.0,4.0,83,0.00,,,0.15,427.000000,,2013-08-25 21:31:00,
2013-08-25 14:55:00,63.0,58.0,-100.00,NNE,15,2.0,4.0,83,0.00,,,0.15,427.000000,,2013-08-25 21:55:00,
2013-08-25 15:03:00,63.0,58.0,-100.00,NNE,15,2.0,4.0,83,0.00,,,0.15,427.000000,,2013-08-25 22:03:00,
2013-08-25 15:14:00,63.0,58.0,-100.00,NNE,15,2.0,4.0,83,0.00,,,0.15,427.000000,,2013-08-25 22:14:00,
2013-08-25 15:24:00,63.0,58.0,-100.00,NNE,15,2.0,4.0,83,0.00,,,0.15,427.000000,,2013-08-25 22:24:00,
2013-08-25 15:31:00,56.0,54.0,-100.00,SSW,213,6.0,21.0,92,0.18,,,0.33,59.000000,,2013-08-25 22:31:00,
2013-08-25 15:53:00,56.0,54.0,-100.00,SSW,213,6.0,21.0,92,0.18,,,0.33,59.000000,,2013-08-25 22:53:00,
2013-08-25 16:03:00,56.0,54.0,-100.00,SSW,213,6.0,21.0,92,0.18,,,0.33,59.000000,,2013-08-25 23:03:00,
2013-08-25 16:12:00,56.0,54.0,-100.00,SSW,213,6.0,21.0,92,0.18,,,0.33,59.000000,,2013-08-25 23:12:00,
2013-08-25 16:23:00,56.0,54.0,-100.00,SSW,213,6.0,21.0,92,0.18,,,0.33,59.000000,,2013-08-25 23:23:00,
2013-08-25 16:31:00,55.0,53.0,-100.00,South,187,5.0,12.0,93,0.06,,,0.39,11.000000,,2013-08-25 23:31:00,
2013-08-25 16:53:00,55.0,53.0,-100.00,South,187,5.0,12.0,93,0.06,,,0.39,11.000000,,2013-08-25 23:53:00,
2013-08-25 17:02:00,55.0,53.0,-100.00,South,187,5.0,12.0,93,0.06,,,0.39,11.000000,,2013-08-26 00:02:00,
2013-08-25 17:11:00,55.0,53.0,-100.00,South,187,5.0,12.0,93,0.06,,,0.39,11.000000,,2013-08-26 00:11:00,
2013-08-25 17:22:00,55.0,53.0,-100.00,South,187,5.0,12.0,93,0.06,,,0.39,11.000000,,2013-08-26 00:22:00,
2013-08-25 17:31:00,56.0,54.0,-100.00,South,190,5.0,8.0,93,0.00,,,0.39,66.000000,,2013-08-26 00:31:00,
2013-08-25 17:52:00,56.0,54.0,-100.00,South,190,5.0,8.0,93,0.00,,,0.39,66.000000,,2013-08-26 00:52:00,
2013-08-25 18:01:00,56.0,54.0,-100.00,South,190,5.0,8.0,93,0.00,,,0.39,66.000000,,2013-08-26 01:01:00,
2013-08-25 18:11:00,56.0,54.0,-100.00,South,190,5.0,8.0,93,0.00,,,0.39,66.000000,,2013-08-26 01:11:00,
2013-08-25 18:22:00,56.0,54.0,-100.00,South,190,5.0,8.0,93,0.00,,,0.39,66.000000,,2013-08-26 01:22:00,
2013-08-25 18:31:00,57.0,55.0,-100.00,SW,225,3.0,9.0,92,0.00,,,0.39,103.000000,,2013-08-26 01:31:00,
2013-08-25 18:52:00,57.0,55.0,-100.00,SW,225,3.0,9.0,92,0.00,,,0.39,103.000000,,2013-08-26 01:52:00,
2013-08-25 19:02:00,57.0,55.0,-100.00,SW,225,3.0,9.0,92,0.00,,,0.39,103.000000,,2013-08-26 02:02:00,
2013-08-25 19:11:00,57.0,55.0,-100.00,SW,225,3.0,9.0,92,0.00,,,0.39,103.000000,,2013-08-26 02:11:00,
2013-08-25 19:21:00,57.0,55.0,-100.00,SW,225,3.0,9.0,92,0.00,,,0.39,103.000000,,2013-08-26 02:21:00,
2013-08-25 19:31:00,54.0,53.0,-100.00,SSE,159,1.0,5.0,95,0.00,,,0.39,20.000000,,2013-08-26 02:31:00,
2013-08-25 19:52:00,54.0,53.0,-100.00,SSE,159,1.0,5.0,95,0.00,,,0.39,20.000000,,2013-08-26 02:52:00,
2013-08-25 20:02:00,54.0,53.0,-100.00,SSE,159,1.0,5.0,95,0.00,,,0.39,20.000000,,2013-08-26 03:02:00,
2013-08-25 20:11:00,54.0,53.0,-100.00,SSE,159,1.0,5.0,95,0.00,,,0.39,20.000000,,2013-08-26 03:11:00,
2013-08-25 20:22:00,54.0,53.0,-100.00,SSE,159,1.0,5.0,95,0.00,,,0.39,20.000000,,2013-08-26 03:22:00,
2013-08-25 20:31:00,53.0,52.0,-100.00,WSW,241,2.0,5.0,95,0.00,,,0.39,3.000000,,2013-08-26 03:31:00,
2013-08-25 20:56:00,53.0,52.0,-100.00,WSW,241,2.0,5.0,95,0.00,,,0.39,3.000000,,2013-08-26 03:56:00,
2013-08-25 21:05:00,53.0,52.0,-100.00,WSW,241,2.0,5.0,95,0.00,,,0.39,3.000000,,2013-08-26 04:05:00,
2013-08-25 21:14:00,53.0,52.0,-100.00,WSW,241,2.0,5.0,95,0.00,,,0.39,3.000000,,2013-08-26 04:14:00,
2013-08-25 21:24:00,53.0,52.0,-100.00,WSW,241,2.0,5.0,95,0.00,,,0.39,3.000000,,2013-08-26 04:24:00,
2013-08-25 21:31:00,52.0,51.0,-100.00,SSW,211,4.0,7.0,96,0.00,,,0.39,0.000000,,2013-08-26 04:31:00,
2013-08-25 21:53:00,52.0,51.0,-100.00,SSW,211,4.0,7.0,96,0.00,,,0.39,0.000000,,2013-08-26 04:53:00,
2013-08-25 22:03:00,52.0,51.0,-100.00,SSW,211,4.0,7.0,96,0.00,,,0.39,0.000000,,2013-08-26 05:03:00,
2013-08-25 22:13:00,52.0,51.0,-100.00,SSW,211,4.0,7.0,96,0.00,,,0.39,0.000000,,2013-08-26 05:13:00,
2013-08-25 22:22:00,52.0,51.0,-100.00,SSW,211,4.0,7.0,96,0.00,,,0.39,0.000000,,2013-08-26 05:22:00,
2013-08-25 22:31:00,53.0,50.0,-100.00,SSW,203,3.0,10.0,89,0.00,,,0.39,0.000000,,2013-08-26 05:31:00,
2013-08-25 22:52:00,53.0,50.0,-100.00,SSW,203,3.0,10.0,89,0.00,,,0.39,0.000000,,2013-08-26 05:52:00,
2013-08-25 23:02:00,53.0,50.0,-100.00,SSW,203,3.0,10.0,89,0.00,,,0.39,0.000000,,2013-08-26 06:02:00,
2013-08-25 23:12:00,53.0,50.0,-100.00,SSW,203,3.0,10.0,89,0.00,,,0.39,0.000000,,2013-08-26 06:12:00,
2013-08-25 23:21:00,53.0,50.0,-100.00,SSW,203,3.0,10.0,89,0.00,,,0.39,0.000000,,2013-08-26 06:21:00,
2013-08-25 23:31:00,51.0,49.0,-100.00,SSW,205,2.0,7.0,93,0.00,,,0.39,0.000000,,2013-08-26 06:31:00,
2013-08-25 23:52:00,51.0,49.0,-100.00,SSW,205,2.0,7.0,93,0.00,,,0.39,0.000000,,2013-08-26 06:52:00,